createdAt,value
2023-04-18T00:01:14.967Z,8.95
2023-04-18T00:03:42.349Z,8.23
2023-04-18T00:06:10.486Z,7.38
2023-04-18T00:08:38.253Z,7.78
2023-04-18T00:11:06.859Z,7.80
2023-04-18T00:13:34.145Z,8.27
2023-04-18T00:16:02.649Z,7.78
2023-04-18T00:18:29.817Z,7.65
2023-04-18T00:20:57.048Z,7.82
2023-04-18T00:23:28.194Z,8.63
2023-04-18T00:25:55.645Z,7.40
2023-04-18T00:28:22.931Z,7.25
2023-04-18T00:30:51.652Z,7.80
2023-04-18T00:33:19.388Z,7.57
2023-04-18T00:35:46.784Z,8.40
2023-04-18T00:38:15.930Z,7.80
2023-04-18T00:40:43.530Z,8.00
2023-04-18T00:43:14.175Z,7.97
2023-04-18T00:45:41.941Z,8.35
2023-04-18T00:48:10.181Z,8.60
2023-04-18T00:50:38.229Z,8.55
2023-04-18T00:53:06.312Z,9.02
2023-04-18T00:55:34.416Z,8.07
2023-04-18T00:58:03.977Z,8.50
2023-04-18T01:00:31.638Z,8.35
2023-04-18T01:02:59.918Z,8.95
2023-04-18T01:05:28.178Z,8.13
2023-04-18T01:08:01.139Z,8.70
2023-04-18T01:10:29.168Z,8.98
2023-04-18T01:13:16.683Z,8.20
2023-04-18T01:15:45.891Z,8.35
2023-04-18T01:18:19.384Z,9.13
2023-04-18T01:20:52.249Z,8.68
2023-04-18T01:23:22.691Z,9.15
2023-04-18T01:25:52.668Z,9.27
2023-04-18T01:28:24.175Z,9.00
2023-04-18T01:30:52.198Z,8.32
2023-04-18T01:33:19.495Z,9.00
2023-04-18T01:35:47.905Z,8.73
2023-04-18T01:38:15.272Z,9.30
2023-04-18T01:40:42.574Z,9.43
2023-04-18T01:43:10.042Z,8.52
2023-04-18T01:45:38.714Z,8.90
2023-04-18T01:48:06.420Z,8.68
2023-04-18T01:50:33.882Z,9.00
2023-04-18T01:53:01.111Z,8.65
2023-04-18T01:55:28.455Z,10.05
2023-04-18T01:57:55.984Z,8.82
2023-04-18T02:00:23.830Z,8.52
2023-04-18T02:02:51.282Z,8.48
2023-04-18T02:05:21.602Z,8.60
2023-04-18T02:07:50.388Z,9.20
2023-04-18T02:10:18.154Z,9.25
2023-04-18T02:12:45.998Z,9.68
2023-04-18T02:15:13.147Z,9.30
2023-04-18T02:17:41.824Z,8.85
2023-04-18T02:20:10.975Z,9.55
2023-04-18T02:22:39.717Z,9.45
2023-04-18T02:25:08.109Z,9.07
2023-04-18T02:27:35.668Z,9.30
2023-04-18T02:30:03.273Z,9.13
2023-04-18T02:32:34.310Z,11.05
2023-04-18T02:35:01.948Z,8.57
2023-04-18T02:37:33.091Z,9.00
2023-04-18T02:40:00.525Z,9.15
2023-04-18T02:42:32.678Z,9.10
2023-04-18T02:45:02.151Z,8.93
2023-04-18T02:47:40.543Z,8.77
2023-04-18T02:50:17.492Z,9.50
2023-04-18T02:52:44.876Z,9.35
2023-04-18T02:55:12.296Z,9.85
2023-04-18T02:57:42.839Z,9.35
2023-04-18T03:00:36.895Z,9.13
2023-04-18T03:03:11.025Z,10.23
2023-04-18T03:05:51.999Z,9.05
2023-04-18T03:08:19.797Z,10.20
2023-04-18T03:10:47.300Z,9.20
2023-04-18T03:13:16.544Z,9.98
2023-04-18T03:15:44.479Z,9.77
2023-04-18T03:18:12.567Z,10.50
2023-04-18T03:20:41.317Z,9.45
2023-04-18T03:23:09.132Z,9.95
2023-04-18T03:25:36.686Z,10.60
2023-04-18T03:28:05.562Z,9.90
2023-04-18T03:30:34.633Z,9.35
2023-04-18T03:33:05.302Z,9.48
2023-04-18T03:35:33.582Z,10.32
2023-04-18T03:38:01.106Z,10.88
2023-04-18T03:40:31.636Z,10.48
2023-04-18T03:43:05.707Z,10.35
2023-04-18T03:45:33.340Z,10.95
2023-04-18T03:48:00.724Z,11.05
2023-04-18T03:50:32.133Z,9.52
2023-04-18T03:53:00.918Z,10.38
2023-04-18T03:55:33.347Z,9.77
2023-04-18T03:58:01.577Z,9.90
2023-04-18T04:00:30.354Z,10.85
2023-04-18T04:03:04.432Z,10.20
2023-04-18T04:05:31.863Z,10.07
2023-04-18T04:08:00.321Z,11.30
2023-04-18T04:10:28.990Z,10.60
2023-04-18T04:12:56.449Z,11.38
2023-04-18T04:15:24.084Z,10.77
2023-04-18T04:18:03.528Z,11.25
2023-04-18T04:20:32.815Z,10.18
2023-04-18T04:23:08.672Z,11.02
2023-04-18T04:25:38.742Z,10.43
2023-04-18T04:28:14.677Z,10.10
2023-04-18T04:30:56.876Z,11.15
2023-04-18T04:33:28.822Z,10.40
2023-04-18T04:36:01.444Z,11.13
2023-04-18T04:38:31.286Z,11.50
2023-04-18T04:40:59.648Z,10.55
2023-04-18T04:43:28.919Z,10.82
2023-04-18T04:45:57.878Z,11.25
2023-04-18T04:48:25.537Z,12.65
2023-04-18T04:50:56.443Z,11.55
2023-04-18T04:53:30.503Z,10.95
2023-04-18T04:55:59.702Z,11.60
2023-04-18T04:58:27.690Z,13.25
2023-04-18T05:01:09.506Z,13.13
2023-04-18T05:03:38.634Z,12.65
2023-04-18T05:06:06.650Z,11.60
2023-04-18T05:08:33.998Z,11.32
2023-04-18T05:11:02.252Z,12.80
2023-04-18T05:13:31.394Z,11.80
2023-04-18T05:15:59.448Z,12.65
2023-04-18T05:18:26.763Z,12.68
2023-04-18T05:20:54.276Z,12.90
2023-04-18T05:23:21.461Z,12.43
2023-04-18T05:25:48.860Z,10.68
2023-04-18T05:28:17.002Z,12.80
2023-04-18T05:30:45.577Z,11.68
2023-04-18T05:33:13.023Z,11.90
2023-04-18T05:35:40.382Z,12.43
2023-04-18T05:38:07.790Z,13.00
2023-04-18T05:40:35.228Z,11.82
2023-04-18T05:43:02.595Z,12.15
2023-04-18T05:45:29.975Z,14.02
2023-04-18T05:47:57.404Z,15.98
2023-04-18T05:50:24.992Z,15.60
2023-04-18T05:52:52.553Z,15.93
2023-04-18T05:55:20.037Z,12.90
2023-04-18T05:57:47.557Z,13.10
2023-04-18T06:00:15.279Z,12.52
2023-04-18T06:02:42.732Z,12.85
2023-04-18T06:05:10.884Z,12.07
2023-04-18T06:07:38.354Z,12.18
2023-04-18T06:10:11.119Z,11.93
2023-04-18T06:12:38.573Z,13.93
2023-04-18T06:15:06.856Z,12.65
2023-04-18T06:17:35.211Z,12.25
2023-04-18T06:20:04.438Z,11.93
2023-04-18T06:22:34.167Z,12.40
2023-04-18T06:25:01.595Z,11.43
2023-04-18T06:27:31.492Z,11.88
2023-04-18T06:29:59.397Z,12.80
2023-04-18T06:32:26.807Z,11.57
2023-04-18T06:34:54.192Z,11.48
2023-04-18T06:37:21.549Z,10.32
2023-04-18T06:39:49.504Z,11.13
2023-04-18T06:42:16.842Z,9.57
2023-04-18T06:44:48.834Z,7.97
2023-04-18T06:47:16.445Z,7.43
2023-04-18T06:49:43.699Z,9.35
2023-04-18T06:52:11.201Z,9.50
2023-04-18T06:54:38.560Z,9.60
2023-04-18T06:57:06.303Z,8.45
2023-04-18T06:59:33.515Z,8.60
2023-04-18T07:02:00.728Z,9.43
2023-04-18T07:04:28.240Z,10.25
2023-04-18T07:06:55.724Z,11.80
2023-04-18T07:09:23.154Z,10.70
2023-04-18T07:11:53.037Z,11.60
2023-04-18T07:14:23.964Z,11.60
2023-04-18T07:16:51.632Z,8.93
2023-04-18T07:19:18.855Z,9.10
2023-04-18T07:21:46.411Z,9.20
2023-04-18T07:24:14.291Z,9.38
2023-04-18T07:26:42.198Z,9.52
2023-04-18T07:29:09.539Z,10.43
2023-04-18T07:31:37.029Z,9.80
2023-04-18T07:34:04.919Z,10.30
2023-04-18T07:36:32.810Z,11.10
2023-04-18T07:39:00.208Z,10.43
2023-04-18T07:41:27.469Z,10.35
2023-04-18T07:43:54.944Z,9.40
2023-04-18T07:46:22.404Z,8.57
2023-04-18T07:48:50.023Z,9.05
2023-04-18T07:51:17.272Z,10.15
2023-04-18T07:53:44.813Z,10.10
2023-04-18T07:56:15.688Z,10.73
2023-04-18T07:58:42.986Z,9.65
2023-04-18T08:01:14.232Z,10.38
2023-04-18T08:03:42.014Z,10.13
2023-04-18T08:06:10.018Z,8.35
2023-04-18T08:08:37.755Z,10.18
2023-04-18T08:11:05.081Z,9.75
2023-04-18T08:13:32.491Z,10.40
2023-04-18T08:16:00.301Z,9.60
2023-04-18T08:18:27.545Z,9.30
2023-04-18T08:20:55.395Z,10.05
2023-04-18T08:23:22.804Z,9.13
2023-04-18T08:25:51.325Z,9.00
2023-04-18T08:28:18.620Z,9.77
2023-04-18T08:30:49.308Z,9.85
2023-04-18T08:33:18.771Z,10.18
2023-04-18T08:35:46.150Z,10.18
2023-04-18T08:38:13.629Z,9.85
2023-04-18T08:40:40.995Z,9.50
2023-04-18T08:43:09.512Z,9.55
2023-04-18T08:45:37.161Z,9.82
2023-04-18T08:48:04.837Z,10.40
2023-04-18T08:50:32.594Z,9.38
2023-04-18T08:53:03.936Z,9.15
2023-04-18T08:55:33.741Z,9.20
2023-04-18T08:58:01.482Z,10.32
2023-04-18T09:00:29.513Z,10.60
2023-04-18T09:02:57.704Z,9.90
2023-04-18T09:05:27.630Z,10.70
2023-04-18T09:07:56.571Z,10.30
2023-04-18T09:10:34.387Z,10.30
2023-04-18T09:13:04.512Z,10.27
2023-04-18T09:15:32.587Z,10.95
2023-04-18T09:18:03.079Z,9.82
2023-04-18T09:20:35.167Z,9.98
2023-04-18T09:23:05.081Z,10.27
2023-04-18T09:25:44.456Z,9.32
2023-04-18T09:28:28.921Z,9.60
2023-04-18T09:30:58.988Z,9.70
2023-04-18T09:33:33.985Z,9.98
2023-04-18T09:36:31.480Z,9.80
2023-04-18T09:38:58.979Z,9.73
2023-04-18T09:41:27.251Z,10.15
2023-04-18T09:44:12.513Z,10.00
2023-04-18T09:46:43.946Z,8.98
2023-04-18T09:49:13.732Z,9.38
2023-04-18T09:51:43.578Z,9.25
2023-04-18T09:54:15.440Z,10.05
2023-04-18T09:56:47.443Z,10.20
2023-04-18T09:59:21.789Z,9.97
2023-04-18T10:01:50.967Z,9.65
2023-04-18T10:04:19.244Z,10.57
2023-04-18T10:06:47.240Z,10.75
2023-04-18T10:09:16.404Z,10.27
2023-04-18T10:11:44.920Z,10.32
2023-04-18T10:14:16.260Z,10.73
2023-04-18T10:16:45.904Z,11.18
2023-04-18T10:19:24.766Z,11.23
2023-04-18T10:21:57.408Z,10.52
2023-04-18T10:24:50.049Z,10.95
2023-04-18T10:27:19.036Z,10.18
2023-04-18T10:29:51.283Z,9.98
2023-04-18T10:32:24.748Z,11.25
2023-04-18T10:34:53.967Z,10.20
2023-04-18T10:37:21.300Z,10.70
2023-04-18T10:40:02.944Z,9.85
2023-04-18T10:42:52.813Z,10.95
2023-04-18T10:45:23.979Z,10.13
2023-04-18T10:47:51.625Z,10.27
2023-04-18T10:50:19.588Z,11.20
2023-04-18T10:52:46.949Z,10.15
2023-04-18T10:55:24.573Z,10.95
2023-04-18T10:57:56.137Z,11.38
2023-04-18T11:00:24.150Z,11.00
2023-04-18T11:02:54.182Z,10.93
2023-04-18T11:05:24.274Z,11.65
2023-04-18T11:07:51.730Z,10.77
2023-04-18T11:10:27.022Z,10.80
2023-04-18T11:12:55.726Z,11.95
2023-04-18T11:15:25.512Z,12.05
2023-04-18T11:18:02.396Z,11.50
2023-04-18T11:20:38.526Z,11.65
2023-04-18T11:23:16.568Z,11.70
2023-04-18T11:25:47.473Z,11.07
2023-04-18T11:28:22.407Z,11.52
2023-04-18T11:30:50.325Z,11.30
2023-04-18T11:33:21.373Z,11.63
2023-04-18T11:35:56.799Z,11.23
2023-04-18T11:38:29.947Z,11.57
2023-04-18T11:40:57.649Z,11.07
2023-04-18T11:43:25.635Z,11.23
2023-04-18T11:45:53.115Z,11.57
2023-04-18T11:48:20.930Z,12.27
2023-04-18T11:50:48.922Z,12.35
2023-04-18T11:53:32.608Z,11.55
2023-04-18T11:56:00.578Z,11.25
2023-04-18T11:58:33.129Z,11.10
2023-04-18T12:01:15.777Z,11.02
2023-04-18T12:03:44.998Z,11.98
2023-04-18T12:06:12.617Z,11.45
2023-04-18T12:08:43.512Z,11.20
2023-04-18T12:11:10.760Z,11.00
2023-04-18T12:13:38.157Z,11.10
2023-04-18T12:16:07.820Z,11.48
2023-04-18T12:18:35.163Z,11.27
2023-04-18T12:21:05.989Z,11.43
2023-04-18T12:23:39.959Z,11.18
2023-04-18T12:26:11.577Z,12.43
2023-04-18T12:28:39.173Z,11.07
2023-04-18T12:31:07.500Z,10.98
2023-04-18T12:33:37.313Z,11.05
2023-04-18T12:36:05.706Z,11.45
2023-04-18T12:38:33.146Z,11.75
2023-04-18T12:41:00.694Z,10.48
2023-04-18T12:43:28.035Z,11.63
2023-04-18T12:45:55.385Z,10.95
2023-04-18T12:48:22.804Z,11.27
2023-04-18T12:50:50.122Z,10.73
2023-04-18T12:53:17.295Z,11.70
2023-04-18T12:55:44.820Z,11.68
2023-04-18T12:58:15.292Z,11.20
2023-04-18T13:00:42.476Z,12.13
2023-04-18T13:03:13.088Z,10.55
2023-04-18T13:05:41.365Z,10.85
2023-04-18T13:08:16.959Z,11.23
2023-04-18T13:10:46.615Z,10.98
2023-04-18T13:13:14.700Z,10.63
2023-04-18T13:15:41.930Z,10.85
2023-04-18T13:18:09.427Z,11.77
2023-04-18T13:20:37.300Z,10.80
2023-04-18T13:23:04.655Z,10.75
2023-04-18T13:25:32.340Z,10.00
2023-04-18T13:28:01.236Z,10.48
2023-04-18T13:30:29.669Z,10.65
2023-04-18T13:32:57.274Z,10.52
2023-04-18T13:35:24.779Z,9.93
2023-04-18T13:37:52.205Z,10.32
2023-04-18T13:40:19.783Z,10.75
2023-04-18T13:42:46.998Z,10.13
2023-04-18T13:45:14.639Z,10.07
2023-04-18T13:47:42.234Z,10.20
2023-04-18T13:50:10.092Z,10.23
2023-04-18T13:52:37.540Z,10.32
2023-04-18T13:55:05.154Z,11.25
2023-04-18T13:57:34.589Z,10.20
2023-04-18T14:00:02.072Z,10.18
2023-04-18T14:02:40.854Z,9.30
2023-04-18T14:05:09.361Z,9.70
2023-04-18T14:07:38.514Z,10.45
2023-04-18T14:10:06.998Z,10.25
2023-04-18T14:12:34.715Z,10.73
2023-04-18T14:15:02.422Z,10.65
2023-04-18T14:17:32.717Z,10.63
2023-04-18T14:20:01.102Z,9.65
2023-04-18T14:22:31.314Z,9.55
2023-04-18T14:24:58.698Z,10.10
2023-04-18T14:27:26.801Z,9.70
2023-04-18T14:29:54.284Z,10.02
2023-04-18T14:32:21.772Z,9.18
2023-04-18T14:34:49.040Z,9.68
2023-04-18T14:37:17.687Z,9.45
2023-04-18T14:39:47.072Z,9.10
2023-04-18T14:42:14.380Z,9.18
2023-04-18T14:44:41.853Z,9.27
2023-04-18T14:47:09.827Z,9.45
2023-04-18T14:49:37.414Z,10.27
2023-04-18T14:52:05.040Z,9.27
2023-04-18T14:54:32.898Z,10.27
2023-04-18T14:57:01.258Z,10.25
2023-04-18T14:59:28.971Z,9.35
2023-04-18T15:01:56.463Z,9.07
2023-04-18T15:04:24.295Z,8.68
2023-04-18T15:06:51.920Z,9.23
2023-04-18T15:09:19.356Z,9.43
2023-04-18T15:11:46.873Z,9.75
2023-04-18T15:14:14.403Z,8.45
2023-04-18T15:16:41.982Z,8.82
2023-04-18T15:19:09.355Z,9.00
2023-04-18T15:21:36.609Z,8.35
2023-04-18T15:24:03.983Z,8.90
2023-04-18T15:26:33.152Z,8.48
2023-04-18T15:29:04.152Z,9.95
2023-04-18T15:31:31.561Z,8.10
2023-04-18T15:33:59.243Z,8.32
2023-04-18T15:36:28.140Z,8.80
2023-04-18T15:38:55.645Z,9.23
2023-04-18T15:41:23.428Z,8.48
2023-04-18T15:43:52.972Z,7.70
2023-04-18T15:46:23.429Z,7.93
2023-04-18T15:48:51.254Z,8.48
2023-04-18T15:51:18.799Z,8.05
2023-04-18T15:53:46.114Z,8.10
2023-04-18T15:56:14.068Z,7.50
2023-04-18T15:58:41.906Z,8.10
2023-04-18T16:01:09.610Z,8.25
2023-04-18T16:03:37.646Z,8.57
2023-04-18T16:06:05.545Z,9.10
2023-04-18T16:08:33.481Z,8.07
2023-04-18T16:11:00.909Z,8.43
2023-04-18T16:13:28.363Z,8.32
2023-04-18T16:15:55.832Z,7.78
2023-04-18T16:18:23.348Z,7.70
2023-04-18T16:20:50.895Z,6.95
2023-04-18T16:23:20.266Z,7.13
2023-04-18T16:25:48.003Z,7.90
2023-04-18T16:28:15.667Z,8.45
2023-04-18T16:30:45.817Z,7.53
2023-04-18T16:33:13.394Z,7.47
2023-04-18T16:35:41.147Z,7.22
2023-04-18T16:38:08.806Z,7.18
2023-04-18T16:40:36.257Z,8.00
2023-04-18T16:43:03.698Z,7.95
2023-04-18T16:45:31.073Z,7.38
2023-04-18T16:47:58.983Z,8.45
2023-04-18T16:50:27.613Z,8.65
2023-04-18T16:52:54.857Z,7.53
2023-04-18T16:55:29.802Z,7.97
2023-04-18T16:57:58.100Z,7.82
2023-04-18T17:00:25.719Z,8.65
2023-04-18T17:02:55.440Z,8.82
2023-04-18T17:05:24.015Z,7.97
2023-04-18T17:07:51.800Z,8.68
2023-04-18T17:10:19.570Z,8.05
2023-04-18T17:12:51.240Z,8.73
2023-04-18T17:15:25.146Z,8.50
2023-04-18T17:17:52.553Z,7.80
2023-04-18T17:20:19.971Z,8.10
2023-04-18T17:22:47.461Z,7.00
2023-04-18T17:25:15.048Z,7.47
2023-04-18T17:27:43.310Z,7.72
2023-04-18T17:30:11.296Z,8.82
2023-04-18T17:32:45.736Z,7.75
2023-04-18T17:35:14.871Z,7.55
2023-04-18T17:37:42.951Z,8.55
2023-04-18T17:40:12.100Z,7.95
2023-04-18T17:42:41.378Z,8.32
2023-04-18T17:45:13.563Z,9.05
2023-04-18T17:47:41.559Z,9.45
2023-04-18T17:50:12.821Z,9.43
2023-04-18T17:52:40.242Z,9.27
2023-04-18T17:55:08.382Z,9.85
2023-04-18T17:57:36.046Z,10.07
2023-04-18T18:00:08.745Z,9.85
2023-04-18T18:02:42.388Z,8.82
2023-04-18T18:05:16.781Z,9.82
2023-04-18T18:07:48.998Z,10.55
2023-04-18T18:10:23.883Z,9.77
2023-04-18T18:12:56.297Z,9.93
2023-04-18T18:15:26.422Z,10.10
2023-04-18T18:17:55.049Z,10.00
2023-04-18T18:20:31.402Z,10.88
2023-04-18T18:23:02.944Z,9.48
2023-04-18T18:25:33.797Z,10.05
2023-04-18T18:28:02.411Z,10.10
2023-04-18T18:30:30.084Z,10.30
2023-04-18T18:32:57.640Z,10.43
2023-04-18T18:35:25.025Z,9.80
2023-04-18T18:37:52.882Z,8.57
2023-04-18T18:40:20.900Z,9.63
2023-04-18T18:42:54.002Z,9.52
2023-04-18T18:45:21.823Z,8.32
2023-04-18T18:47:49.684Z,8.35
2023-04-18T18:50:17.409Z,7.68
2023-04-18T18:52:45.183Z,7.97
2023-04-18T18:55:12.616Z,8.27
2023-04-18T18:57:40.073Z,7.35
2023-04-18T19:00:11.675Z,8.25
2023-04-18T19:02:39.918Z,7.90
2023-04-18T19:05:07.966Z,6.68
2023-04-18T19:07:35.216Z,6.97
2023-04-18T19:10:03.633Z,7.45
2023-04-18T19:12:34.654Z,7.63
2023-04-18T19:15:02.422Z,7.95
2023-04-18T19:17:36.023Z,8.07
2023-04-18T19:20:04.205Z,7.97
2023-04-18T19:22:33.489Z,8.32
2023-04-18T19:25:04.156Z,8.10
2023-04-18T19:27:33.064Z,8.45
2023-04-18T19:30:00.330Z,7.72
2023-04-18T19:32:28.110Z,8.43
2023-04-18T19:34:55.416Z,8.52
2023-04-18T19:37:22.710Z,7.82
2023-04-18T19:39:49.973Z,7.18
2023-04-18T19:42:17.214Z,7.47
2023-04-18T19:44:44.927Z,8.32
2023-04-18T19:47:12.588Z,8.70
2023-04-18T19:49:39.809Z,9.20
2023-04-18T19:52:07.011Z,8.80
2023-04-18T19:54:34.613Z,8.30
2023-04-18T19:57:02.888Z,8.32
2023-04-18T19:59:30.439Z,8.13
2023-04-18T20:02:01.421Z,8.00
2023-04-18T20:04:31.811Z,8.18
2023-04-18T20:06:59.266Z,8.68
2023-04-18T20:09:26.924Z,9.18
2023-04-18T20:11:54.617Z,7.65
2023-04-18T20:14:24.651Z,8.73
2023-04-18T20:16:52.545Z,8.13
2023-04-18T20:19:20.192Z,9.07
2023-04-18T20:21:47.339Z,8.77
2023-04-18T20:24:15.764Z,8.70
2023-04-18T20:26:45.783Z,8.40
2023-04-18T20:29:13.428Z,7.43
2023-04-18T20:31:42.497Z,8.15
2023-04-18T20:34:10.025Z,8.18
2023-04-18T20:36:41.615Z,7.47
2023-04-18T20:39:09.633Z,8.38
2023-04-18T20:41:37.223Z,7.60
2023-04-18T20:44:09.189Z,8.80
2023-04-18T20:46:36.690Z,8.15
2023-04-18T20:49:07.846Z,7.57
2023-04-18T20:51:37.153Z,8.13
2023-04-18T20:54:05.565Z,8.68
2023-04-18T20:56:33.870Z,7.15
2023-04-18T20:59:01.430Z,6.50
2023-04-18T21:01:28.762Z,5.60
2023-04-18T21:03:56.342Z,6.22
2023-04-18T21:06:23.879Z,6.15
2023-04-18T21:08:51.247Z,6.43
2023-04-18T21:11:18.580Z,6.80
2023-04-18T21:13:45.909Z,6.43
2023-04-18T21:16:13.267Z,7.20
2023-04-18T21:18:40.754Z,7.57
2023-04-18T21:21:08.315Z,6.28
2023-04-18T21:23:42.124Z,6.88
2023-04-18T21:26:13.324Z,7.05
2023-04-18T21:28:59.311Z,6.63
2023-04-18T21:31:29.354Z,7.90
2023-04-18T21:33:58.504Z,7.18
2023-04-18T21:36:27.958Z,7.00
2023-04-18T21:38:56.420Z,6.97
2023-04-18T21:41:24.580Z,7.32
2023-04-18T21:43:52.430Z,7.50
2023-04-18T21:46:20.353Z,6.97
2023-04-18T21:48:48.248Z,6.50
2023-04-18T21:51:17.517Z,6.53
2023-04-18T21:53:44.993Z,7.28
2023-04-18T21:56:12.755Z,6.97
2023-04-18T21:58:40.505Z,7.65
2023-04-18T22:01:08.185Z,7.55
2023-04-18T22:03:37.236Z,7.85
2023-04-18T22:06:04.825Z,7.38
2023-04-18T22:08:32.664Z,7.97
2023-04-18T22:11:00.477Z,8.65
2023-04-18T22:13:33.199Z,7.68
2023-04-18T22:16:04.975Z,8.00
2023-04-18T22:18:37.898Z,8.75
2023-04-18T22:21:06.244Z,8.52
2023-04-18T22:23:33.689Z,9.68
2023-04-18T22:26:01.157Z,8.68
2023-04-18T22:28:28.847Z,8.38
2023-04-18T22:30:56.518Z,8.80
2023-04-18T22:33:24.498Z,8.65
2023-04-18T22:35:52.163Z,9.20
2023-04-18T22:38:19.646Z,8.07
2023-04-18T22:40:47.041Z,7.78
2023-04-18T22:43:14.410Z,7.90
2023-04-18T22:45:41.649Z,7.68
2023-04-18T22:48:11.601Z,8.40
2023-04-18T22:50:42.865Z,7.97
2023-04-18T22:53:11.143Z,8.85
2023-04-18T22:55:40.470Z,8.95
2023-04-18T22:58:08.793Z,9.65
2023-04-18T23:00:36.344Z,8.10
2023-04-18T23:03:04.762Z,9.48
2023-04-18T23:05:32.487Z,8.80
2023-04-18T23:08:00.503Z,8.68
2023-04-18T23:10:28.539Z,9.23
2023-04-18T23:12:56.648Z,9.93
2023-04-18T23:15:24.217Z,7.50
2023-04-18T23:17:54.610Z,8.70
2023-04-18T23:20:22.288Z,7.82
2023-04-18T23:22:51.767Z,7.20
2023-04-18T23:25:20.062Z,7.45
2023-04-18T23:27:49.506Z,8.00
2023-04-18T23:30:17.362Z,7.78
2023-04-18T23:32:45.080Z,7.68
2023-04-18T23:35:12.308Z,7.57
2023-04-18T23:37:39.821Z,7.50
2023-04-18T23:40:08.056Z,7.30
2023-04-18T23:42:36.114Z,7.13
2023-04-18T23:45:04.600Z,7.75
2023-04-18T23:47:35.400Z,7.47
2023-04-18T23:50:03.061Z,8.15
2023-04-18T23:52:33.427Z,7.18
2023-04-18T23:55:01.834Z,7.85
2023-04-18T23:57:33.667Z,7.93
